createdAt,value
2017-12-02T00:00:38.498Z,0.00
2017-12-02T00:01:38.421Z,0.00
2017-12-02T00:02:38.425Z,0.00
2017-12-02T00:03:38.660Z,0.00
2017-12-02T00:04:38.368Z,0.00
2017-12-02T00:05:38.349Z,0.00
2017-12-02T00:06:59.403Z,0.00
2017-12-02T00:07:38.345Z,0.00
2017-12-02T00:08:38.385Z,0.00
2017-12-02T00:09:38.291Z,0.00
2017-12-02T00:10:38.261Z,0.00
2017-12-02T00:11:38.252Z,0.00
2017-12-02T00:12:38.228Z,0.00
2017-12-02T00:13:38.224Z,0.00
2017-12-02T00:14:38.227Z,0.00
2017-12-02T00:15:38.187Z,0.00
2017-12-02T00:16:38.167Z,0.00
2017-12-02T00:17:38.273Z,0.00
2017-12-02T00:18:38.141Z,0.00
2017-12-02T00:19:38.129Z,0.00
2017-12-02T00:20:38.158Z,0.00
2017-12-02T00:21:38.266Z,0.00
2017-12-02T00:22:38.061Z,0.00
2017-12-02T00:23:38.171Z,0.00
2017-12-02T00:24:38.034Z,0.00
2017-12-02T00:25:38.017Z,0.00
2017-12-02T00:26:37.996Z,0.00
2017-12-02T00:27:37.978Z,0.00
2017-12-02T00:28:37.967Z,0.00
2017-12-02T00:29:38.002Z,0.00
2017-12-02T00:30:37.928Z,0.00
2017-12-02T00:31:37.904Z,0.00
2017-12-02T00:32:37.886Z,0.00
2017-12-02T00:33:53.928Z,0.00
2017-12-02T00:34:37.854Z,0.00
2017-12-02T00:35:37.908Z,0.00
2017-12-02T00:36:37.807Z,0.00
2017-12-02T00:37:37.812Z,0.00
2017-12-02T00:38:37.791Z,0.00
2017-12-02T00:39:37.778Z,0.00
2017-12-02T00:40:37.739Z,0.00
2017-12-02T00:41:37.816Z,0.00
2017-12-02T00:42:37.716Z,0.00
2017-12-02T00:43:37.698Z,0.00
2017-12-02T00:44:37.684Z,0.00
2017-12-02T00:45:37.654Z,0.00
2017-12-02T00:46:37.644Z,0.00
2017-12-02T00:47:37.659Z,0.00
2017-12-02T00:48:37.603Z,0.00
2017-12-02T00:49:37.583Z,0.00
2017-12-02T00:50:37.579Z,0.00
2017-12-02T00:51:37.632Z,0.00
2017-12-02T00:52:37.622Z,0.00
2017-12-02T00:53:37.528Z,0.00
2017-12-02T00:54:37.510Z,0.00
2017-12-02T00:55:37.487Z,0.00
2017-12-02T00:56:37.515Z,0.00
2017-12-02T00:57:38.031Z,0.00
2017-12-02T00:58:38.460Z,0.00
2017-12-02T00:59:37.760Z,0.00
2017-12-02T01:00:38.093Z,0.00
2017-12-02T01:01:38.115Z,0.00
2017-12-02T01:02:37.360Z,0.00
2017-12-02T01:03:37.353Z,0.00
2017-12-02T01:04:37.451Z,0.00
2017-12-02T01:05:37.323Z,0.00
2017-12-02T01:06:37.322Z,0.00
2017-12-02T01:07:37.288Z,0.00
2017-12-02T01:08:37.256Z,0.00
2017-12-02T01:09:37.608Z,0.00
2017-12-02T01:10:37.363Z,0.00
2017-12-02T01:11:37.201Z,0.00
2017-12-02T01:12:37.329Z,0.00
2017-12-02T01:13:37.176Z,0.00
2017-12-02T01:14:37.158Z,0.00
2017-12-02T01:15:37.160Z,0.00
2017-12-02T01:16:37.155Z,0.00
2017-12-02T01:17:37.108Z,0.00
2017-12-02T01:18:37.090Z,0.00
2017-12-02T01:19:37.073Z,0.00
2017-12-02T01:20:37.050Z,0.00
2017-12-02T01:21:37.091Z,0.00
2017-12-02T01:22:37.027Z,0.00
2017-12-02T01:23:36.994Z,0.00
2017-12-02T01:24:37.092Z,0.00
2017-12-02T01:25:36.982Z,0.00
2017-12-02T01:26:36.955Z,0.00
2017-12-02T01:27:36.928Z,0.00
2017-12-02T01:28:36.915Z,0.00
2017-12-02T01:29:36.899Z,0.00
2017-12-02T01:30:36.919Z,0.00
2017-12-02T01:31:36.903Z,0.00
2017-12-02T01:32:36.854Z,0.00
2017-12-02T01:33:36.918Z,0.00
2017-12-02T01:34:36.817Z,0.00
2017-12-02T01:35:36.801Z,0.00
2017-12-02T01:36:36.846Z,0.00
2017-12-02T01:37:37.275Z,0.00
2017-12-02T01:38:36.746Z,0.00
2017-12-02T01:39:36.733Z,0.00
2017-12-02T01:40:36.711Z,0.00
2017-12-02T01:41:36.696Z,0.00
2017-12-02T01:42:36.714Z,0.00
2017-12-02T01:43:36.662Z,0.00
2017-12-02T01:44:36.936Z,0.00
2017-12-02T01:45:36.632Z,0.00
2017-12-02T01:46:36.642Z,0.00
2017-12-02T01:47:36.633Z,0.00
2017-12-02T01:48:36.580Z,0.00
2017-12-02T01:49:36.550Z,0.00
2017-12-02T01:50:36.539Z,0.00
2017-12-02T01:51:36.539Z,0.00
2017-12-02T01:52:36.551Z,0.00
2017-12-02T01:53:36.491Z,0.00
2017-12-02T01:54:36.483Z,0.00
2017-12-02T01:55:36.464Z,0.00
2017-12-02T01:56:36.434Z,0.00
2017-12-02T01:57:36.498Z,0.00
2017-12-02T01:58:36.412Z,0.00
2017-12-02T01:59:36.394Z,0.00
2017-12-02T02:00:36.371Z,0.00
2017-12-02T02:01:36.353Z,0.00
2017-12-02T02:02:36.338Z,0.00
2017-12-02T02:03:36.414Z,0.00
2017-12-02T02:04:36.327Z,0.00
2017-12-02T02:05:36.283Z,0.00
2017-12-02T02:06:36.265Z,0.00
2017-12-02T02:07:36.256Z,0.00
2017-12-02T02:08:36.252Z,0.00
2017-12-02T02:09:36.280Z,0.00
2017-12-02T02:10:36.199Z,0.00
2017-12-02T02:11:36.180Z,0.00
2017-12-02T02:12:36.169Z,0.00
2017-12-02T02:13:36.161Z,0.00
2017-12-02T02:14:36.130Z,0.00
2017-12-02T02:15:36.167Z,0.00
2017-12-02T02:16:36.102Z,0.00
2017-12-02T02:17:36.092Z,0.00
2017-12-02T02:18:36.062Z,0.00
2017-12-02T02:19:36.046Z,0.00
2017-12-02T02:20:36.031Z,0.00
2017-12-02T02:21:36.057Z,0.00
2017-12-02T02:22:36.005Z,0.00
2017-12-02T02:23:35.976Z,0.00
2017-12-02T02:24:35.967Z,0.00
2017-12-02T02:25:35.941Z,0.00
2017-12-02T02:26:36.071Z,0.00
2017-12-02T02:27:35.906Z,0.00
2017-12-02T02:28:35.896Z,0.00
2017-12-02T02:29:35.881Z,0.00
2017-12-02T02:30:35.863Z,0.00
2017-12-02T02:31:35.842Z,0.00
2017-12-02T02:32:35.857Z,0.00
2017-12-02T02:33:35.883Z,0.00
2017-12-02T02:34:35.796Z,0.00
2017-12-02T02:35:35.786Z,0.00
2017-12-02T02:36:35.759Z,0.00
2017-12-02T02:37:35.743Z,0.00
2017-12-02T02:38:35.721Z,0.00
2017-12-02T02:39:35.766Z,0.00
2017-12-02T02:40:35.685Z,0.00
2017-12-02T02:41:35.671Z,0.00
2017-12-02T02:42:35.670Z,0.00
2017-12-02T02:43:35.652Z,0.00
2017-12-02T02:44:35.624Z,0.00
2017-12-02T02:45:35.627Z,0.00
2017-12-02T02:46:35.589Z,0.00
2017-12-02T02:47:35.704Z,0.00
2017-12-02T02:48:35.552Z,0.00
2017-12-02T02:49:35.522Z,0.00
2017-12-02T02:50:35.522Z,0.00
2017-12-02T02:51:35.492Z,0.00
2017-12-02T02:52:35.492Z,0.00
2017-12-02T02:53:35.524Z,0.00
2017-12-02T02:54:35.452Z,0.00
2017-12-02T02:55:35.429Z,0.00
2017-12-02T02:56:35.418Z,0.00
2017-12-02T02:57:35.395Z,0.00
2017-12-02T02:58:35.373Z,0.00
2017-12-02T02:59:35.395Z,0.00
2017-12-02T03:00:35.383Z,0.00
2017-12-02T03:01:35.324Z,0.00
2017-12-02T03:02:35.305Z,0.00
2017-12-02T03:03:36.647Z,0.00
2017-12-02T03:04:35.273Z,0.00
2017-12-02T03:05:35.260Z,0.00
2017-12-02T03:06:35.243Z,0.00
2017-12-02T03:07:35.228Z,0.00
2017-12-02T03:08:35.222Z,0.00
2017-12-02T03:09:35.229Z,0.00
2017-12-02T03:10:35.174Z,0.00
2017-12-02T03:11:35.163Z,0.00
2017-12-02T03:12:35.146Z,0.00
2017-12-02T03:13:35.165Z,0.00
2017-12-02T03:14:35.103Z,0.00
2017-12-02T03:15:35.108Z,0.00
2017-12-02T03:16:35.090Z,0.00
2017-12-02T03:17:35.052Z,0.00
2017-12-02T03:18:35.173Z,0.00
2017-12-02T03:19:35.016Z,0.00
2017-12-02T03:20:35.000Z,0.00
2017-12-02T03:21:35.015Z,0.00
2017-12-02T03:22:34.974Z,0.00
2017-12-02T03:23:34.958Z,0.00
2017-12-02T03:24:35.017Z,0.00
2017-12-02T03:25:34.916Z,0.00
2017-12-02T03:26:34.905Z,0.00
2017-12-02T03:27:34.881Z,0.00
2017-12-02T03:28:34.868Z,0.00
2017-12-02T03:29:34.851Z,0.00
2017-12-02T03:30:34.890Z,0.00
2017-12-02T03:31:34.820Z,0.00
2017-12-02T03:32:34.798Z,0.00
2017-12-02T03:33:34.809Z,0.00
2017-12-02T03:34:34.763Z,0.00
2017-12-02T03:35:34.737Z,0.00
2017-12-02T03:36:34.896Z,0.00
2017-12-02T03:37:34.706Z,0.00
2017-12-02T03:38:34.711Z,0.00
2017-12-02T03:39:34.672Z,0.00
2017-12-02T03:40:34.669Z,0.00
2017-12-02T03:41:34.637Z,0.00
2017-12-02T03:42:34.668Z,0.00
2017-12-02T03:43:34.618Z,0.00
2017-12-02T03:44:34.587Z,0.00
2017-12-02T03:45:34.710Z,0.00
2017-12-02T03:46:34.563Z,0.00
2017-12-02T03:47:34.541Z,0.00
2017-12-02T03:48:35.038Z,0.00
2017-12-02T03:49:34.511Z,0.00
2017-12-02T03:50:34.481Z,0.00
2017-12-02T03:51:34.620Z,0.00
2017-12-02T03:52:34.455Z,0.00
2017-12-02T03:53:34.448Z,0.00
2017-12-02T03:54:34.440Z,0.00
2017-12-02T03:55:34.411Z,0.00
2017-12-02T03:56:34.389Z,0.00
2017-12-02T03:57:34.689Z,0.00
2017-12-02T03:58:34.366Z,0.00
2017-12-02T03:59:34.335Z,0.00
2017-12-02T04:00:34.322Z,0.00
2017-12-02T04:01:34.298Z,0.00
2017-12-02T04:02:34.279Z,0.00
2017-12-02T04:03:34.625Z,0.00
2017-12-02T04:04:34.259Z,0.00
2017-12-02T04:05:34.224Z,0.00
2017-12-02T04:06:34.221Z,0.00
2017-12-02T04:07:34.198Z,0.00
2017-12-02T04:08:34.175Z,0.00
2017-12-02T04:09:34.200Z,0.00
2017-12-02T04:10:34.145Z,0.00
2017-12-02T04:11:34.144Z,0.00
2017-12-02T04:12:34.108Z,0.00
2017-12-02T04:13:34.108Z,0.00
2017-12-02T04:14:34.067Z,0.00
2017-12-02T04:15:34.199Z,0.00
2017-12-02T04:16:34.043Z,0.00
2017-12-02T04:17:34.030Z,0.00
2017-12-02T04:18:34.006Z,0.00
2017-12-02T04:19:34.537Z,0.00
2017-12-02T04:20:33.976Z,0.00
2017-12-02T04:21:34.114Z,0.00
2017-12-02T04:22:33.939Z,0.00
2017-12-02T04:23:33.925Z,0.00
2017-12-02T04:24:33.905Z,0.00
2017-12-02T04:25:33.899Z,0.00
2017-12-02T04:26:33.871Z,0.00
2017-12-02T04:27:33.925Z,0.00
2017-12-02T04:28:33.853Z,0.00
2017-12-02T04:29:33.816Z,0.00
2017-12-02T04:30:33.809Z,0.00
2017-12-02T04:31:33.776Z,0.00
2017-12-02T04:32:33.775Z,0.00
2017-12-02T04:33:33.810Z,0.00
2017-12-02T04:34:33.732Z,0.00
2017-12-02T04:35:33.723Z,0.00
2017-12-02T04:36:33.703Z,0.00
2017-12-02T04:37:33.690Z,0.00
2017-12-02T04:38:33.656Z,0.00
2017-12-02T04:39:33.698Z,0.00
2017-12-02T04:40:33.628Z,0.00
2017-12-02T04:41:33.608Z,0.00
2017-12-02T04:42:33.591Z,0.00
2017-12-02T04:43:33.577Z,0.00
2017-12-02T04:44:33.555Z,0.00
2017-12-02T04:45:33.591Z,0.00
2017-12-02T04:46:33.531Z,0.00
2017-12-02T04:47:33.502Z,0.00
2017-12-02T04:48:33.489Z,0.00
2017-12-02T04:49:33.474Z,0.00
2017-12-02T04:50:33.450Z,0.00
2017-12-02T04:51:33.499Z,0.00
2017-12-02T04:52:33.428Z,0.00
2017-12-02T04:53:33.402Z,0.00
2017-12-02T04:54:33.383Z,0.00
2017-12-02T04:55:33.366Z,0.00
2017-12-02T04:56:33.357Z,0.00
2017-12-02T04:57:33.389Z,0.00
2017-12-02T04:58:33.318Z,0.00
2017-12-02T04:59:33.303Z,0.00
2017-12-02T05:00:33.287Z,0.00
2017-12-02T05:01:33.262Z,0.00
2017-12-02T05:02:33.249Z,0.00
2017-12-02T05:03:33.515Z,0.00
2017-12-02T05:04:33.219Z,0.00
2017-12-02T05:05:33.195Z,0.00
2017-12-02T05:06:33.187Z,0.00
2017-12-02T05:07:33.171Z,0.00
2017-12-02T05:08:33.199Z,0.00
2017-12-02T05:09:33.136Z,0.00
2017-12-02T05:10:33.109Z,0.00
2017-12-02T05:11:33.103Z,0.00
2017-12-02T05:12:33.077Z,0.00
2017-12-02T05:13:33.050Z,0.00
2017-12-02T05:14:33.179Z,0.00
2017-12-02T05:15:33.032Z,0.00
2017-12-02T05:16:33.004Z,0.00
2017-12-02T05:17:32.999Z,0.00
2017-12-02T05:18:32.975Z,0.00
2017-12-02T05:19:32.958Z,0.00
2017-12-02T05:20:33.036Z,0.00
2017-12-02T05:21:32.920Z,0.00
2017-12-02T05:22:32.897Z,0.00
2017-12-02T05:23:32.891Z,0.00
2017-12-02T05:24:32.887Z,0.00
2017-12-02T05:25:32.853Z,0.00
2017-12-02T05:26:32.970Z,0.00
2017-12-02T05:27:32.818Z,0.00
2017-12-02T05:28:32.805Z,0.00
2017-12-02T05:29:32.790Z,0.00
2017-12-02T05:30:32.768Z,0.00
2017-12-02T05:31:32.754Z,0.00
2017-12-02T05:32:32.776Z,0.00
2017-12-02T05:33:32.713Z,0.00
2017-12-02T05:34:32.700Z,0.00
2017-12-02T05:35:32.683Z,0.00
2017-12-02T05:36:32.729Z,0.00
2017-12-02T05:37:32.640Z,0.00
2017-12-02T05:38:32.623Z,0.00
2017-12-02T05:39:32.610Z,0.00
2017-12-02T05:40:32.593Z,0.00
2017-12-02T05:41:32.571Z,0.00
2017-12-02T05:42:32.613Z,0.00
2017-12-02T05:43:32.551Z,0.00
2017-12-02T05:44:32.532Z,0.00
2017-12-02T05:45:32.501Z,0.00
2017-12-02T05:46:32.494Z,0.00
2017-12-02T05:47:32.470Z,0.00
2017-12-02T05:48:32.618Z,0.00
2017-12-02T05:49:32.436Z,0.00
2017-12-02T05:50:32.414Z,0.00
2017-12-02T05:51:32.405Z,0.00
2017-12-02T05:52:32.399Z,0.00
2017-12-02T05:53:32.376Z,0.00
2017-12-02T05:54:32.384Z,0.00
2017-12-02T05:55:32.330Z,0.00
2017-12-02T05:56:32.306Z,0.00
2017-12-02T05:57:32.302Z,0.00
2017-12-02T05:58:32.310Z,0.00
2017-12-02T05:59:32.328Z,0.00
2017-12-02T06:00:32.238Z,0.00
2017-12-02T06:01:32.229Z,0.00
2017-12-02T06:02:32.208Z,0.00
2017-12-02T06:03:32.198Z,0.00
2017-12-02T06:04:32.176Z,0.00
2017-12-02T06:05:32.190Z,0.00
2017-12-02T06:06:32.138Z,0.00
2017-12-02T06:07:32.124Z,0.00
2017-12-02T06:08:32.122Z,0.00
2017-12-02T06:09:32.094Z,0.00
2017-12-02T06:10:32.140Z,0.00
2017-12-02T06:11:32.055Z,0.00
2017-12-02T06:12:32.043Z,0.00
2017-12-02T06:13:32.024Z,0.00
2017-12-02T06:14:32.007Z,0.00
2017-12-02T06:15:31.990Z,0.00
2017-12-02T06:16:32.112Z,0.00
2017-12-02T06:17:31.971Z,0.00
2017-12-02T06:18:31.935Z,0.00
2017-12-02T06:19:31.916Z,0.00
2017-12-02T06:20:31.901Z,0.00
2017-12-02T06:21:31.886Z,0.00
2017-12-02T06:22:31.949Z,0.00
2017-12-02T06:23:31.851Z,0.00
2017-12-02T06:24:31.834Z,0.00
2017-12-02T06:25:31.812Z,0.00
2017-12-02T06:26:31.798Z,0.00
2017-12-02T06:27:31.793Z,0.00
2017-12-02T06:28:31.905Z,0.00
2017-12-02T06:29:31.749Z,0.00
2017-12-02T06:30:31.731Z,0.00
2017-12-02T06:31:31.714Z,0.00
2017-12-02T06:32:31.692Z,0.00
2017-12-02T06:33:31.679Z,0.00
2017-12-02T06:34:31.798Z,0.00
2017-12-02T06:35:31.640Z,0.00
2017-12-02T06:36:31.636Z,0.00
2017-12-02T06:37:31.609Z,0.00
2017-12-02T06:38:31.602Z,0.00
2017-12-02T06:39:31.579Z,0.00
2017-12-02T06:40:31.622Z,0.00
2017-12-02T06:41:52.542Z,0.00
2017-12-02T06:42:31.526Z,0.00
2017-12-02T06:43:31.502Z,0.00
2017-12-02T06:44:31.503Z,0.00
2017-12-02T06:45:31.468Z,0.00
2017-12-02T06:46:31.517Z,0.00
2017-12-02T06:47:31.437Z,0.00
2017-12-02T06:48:31.426Z,0.00
2017-12-02T06:49:31.417Z,0.00
2017-12-02T06:50:31.386Z,0.00
2017-12-02T06:51:31.380Z,0.00
2017-12-02T06:52:31.387Z,0.00
2017-12-02T06:53:31.343Z,0.00
2017-12-02T06:54:31.325Z,0.00
2017-12-02T06:55:31.317Z,0.00
2017-12-02T06:56:31.293Z,0.00
2017-12-02T06:57:31.297Z,0.00
2017-12-02T06:58:31.254Z,0.00
2017-12-02T06:59:31.233Z,0.00
2017-12-02T07:00:31.227Z,0.00
2017-12-02T07:01:31.207Z,0.00
2017-12-02T07:02:31.326Z,0.00
2017-12-02T07:03:31.169Z,0.00
2017-12-02T07:04:31.147Z,0.00
2017-12-02T07:05:31.137Z,0.00
2017-12-02T07:06:31.116Z,0.00
2017-12-02T07:07:31.105Z,0.00
2017-12-02T07:08:31.218Z,0.00
2017-12-02T07:09:31.061Z,0.00
2017-12-02T07:10:31.054Z,0.00
2017-12-02T07:11:31.033Z,0.00
2017-12-02T07:12:31.015Z,0.00
2017-12-02T07:13:31.002Z,0.00
2017-12-02T07:14:31.017Z,0.00
2017-12-02T07:15:30.970Z,0.00
2017-12-02T07:16:31.003Z,0.00
2017-12-02T07:17:30.923Z,0.00
2017-12-02T07:18:30.911Z,0.00
2017-12-02T07:19:30.894Z,0.00
2017-12-02T07:20:30.883Z,0.00
2017-12-02T07:21:30.859Z,0.00
2017-12-02T07:22:30.907Z,0.00
2017-12-02T07:23:30.823Z,0.00
2017-12-02T07:24:30.810Z,0.00
2017-12-02T07:25:30.793Z,0.00
2017-12-02T07:26:30.771Z,0.00
2017-12-02T07:27:30.890Z,0.00
2017-12-02T07:28:30.741Z,0.00
2017-12-02T07:29:30.724Z,0.00
2017-12-02T07:30:30.706Z,0.00
2017-12-02T07:31:30.685Z,5.63
2017-12-02T07:32:30.663Z,5.63
2017-12-02T07:33:30.732Z,5.63
2017-12-02T07:34:30.634Z,5.63
2017-12-02T07:35:30.628Z,5.63
2017-12-02T07:36:30.605Z,5.63
2017-12-02T07:37:30.602Z,5.63
2017-12-02T07:38:30.574Z,5.63
2017-12-02T07:39:30.604Z,5.63
2017-12-02T07:40:30.529Z,5.63
2017-12-02T07:41:30.522Z,5.63
2017-12-02T07:42:30.503Z,5.63
2017-12-02T07:43:30.476Z,5.63
2017-12-02T07:44:30.466Z,11.25
2017-12-02T07:45:30.480Z,11.25
2017-12-02T07:46:30.427Z,11.25
2017-12-02T07:47:30.411Z,11.25
2017-12-02T07:48:30.398Z,11.25
2017-12-02T07:49:31.061Z,11.25
2017-12-02T07:50:30.421Z,11.25
2017-12-02T07:51:30.342Z,11.25
2017-12-02T07:52:30.330Z,11.25
2017-12-02T07:53:30.311Z,11.25
2017-12-02T07:54:30.311Z,11.25
2017-12-02T07:55:30.277Z,11.25
2017-12-02T07:56:30.317Z,11.25
2017-12-02T07:57:30.241Z,11.25
2017-12-02T07:58:30.224Z,11.25
2017-12-02T07:59:30.206Z,11.25
2017-12-02T08:00:30.196Z,16.88
2017-12-02T08:01:30.174Z,16.88
2017-12-02T08:02:30.210Z,16.88
2017-12-02T08:03:30.138Z,16.88
2017-12-02T08:04:30.128Z,22.50
2017-12-02T08:05:30.101Z,22.50
2017-12-02T08:06:30.083Z,22.50
2017-12-02T08:07:30.067Z,22.50
2017-12-02T08:08:30.111Z,16.88
2017-12-02T08:09:30.034Z,16.88
2017-12-02T08:10:30.013Z,22.50
2017-12-02T08:11:30.000Z,22.50
2017-12-02T08:12:29.984Z,22.50
2017-12-02T08:13:29.958Z,22.50
2017-12-02T08:14:30.084Z,22.50
2017-12-02T08:15:29.941Z,22.50
2017-12-02T08:16:29.921Z,22.50
2017-12-02T08:17:29.896Z,28.13
2017-12-02T08:18:29.881Z,28.13
2017-12-02T08:19:29.875Z,28.13
2017-12-02T08:20:29.876Z,28.13
2017-12-02T08:21:29.827Z,22.50
2017-12-02T08:22:29.809Z,22.50
2017-12-02T08:23:29.786Z,22.50
2017-12-02T08:24:29.856Z,22.50
2017-12-02T08:25:29.756Z,22.50
2017-12-02T08:26:29.741Z,28.13
2017-12-02T08:27:29.714Z,28.13
2017-12-02T08:28:29.698Z,28.13
2017-12-02T08:29:29.696Z,28.13
2017-12-02T08:30:29.707Z,28.13
2017-12-02T08:31:29.647Z,28.13
2017-12-02T08:32:29.632Z,28.13
2017-12-02T08:33:29.620Z,28.13
2017-12-02T08:34:29.604Z,28.13
2017-12-02T08:35:29.717Z,28.13
2017-12-02T08:36:29.570Z,28.13
2017-12-02T08:37:29.548Z,28.13
2017-12-02T08:38:29.535Z,28.13
2017-12-02T08:39:29.512Z,33.75
2017-12-02T08:40:29.500Z,33.75
2017-12-02T08:41:29.630Z,33.75
2017-12-02T08:42:29.460Z,39.38
2017-12-02T08:43:29.634Z,39.38
2017-12-02T08:44:30.190Z,33.75
2017-12-02T08:45:29.650Z,33.75
2017-12-02T08:46:30.174Z,33.75
2017-12-02T08:47:30.407Z,33.75
2017-12-02T08:48:30.216Z,33.75
2017-12-02T08:49:32.068Z,33.75
2017-12-02T08:50:31.101Z,33.75
2017-12-02T08:51:29.374Z,33.75
2017-12-02T08:52:29.296Z,39.38
2017-12-02T08:53:29.283Z,39.38
2017-12-02T08:54:29.262Z,39.38
2017-12-02T08:55:29.255Z,39.38
2017-12-02T08:56:30.122Z,39.38
2017-12-02T08:57:29.257Z,39.38
2017-12-02T08:58:29.199Z,39.38
2017-12-02T08:59:29.185Z,39.38
2017-12-02T09:00:29.160Z,39.38
2017-12-02T09:01:29.132Z,39.38
2017-12-02T09:02:29.128Z,39.38
2017-12-02T09:03:29.189Z,33.75
2017-12-02T09:04:29.994Z,33.75
2017-12-02T09:05:29.283Z,33.75
2017-12-02T09:06:29.266Z,33.75
2017-12-02T09:07:29.032Z,33.75
2017-12-02T09:08:29.187Z,33.75
2017-12-02T09:09:29.255Z,33.75
2017-12-02T09:10:29.082Z,39.38
2017-12-02T09:11:29.193Z,39.38
2017-12-02T09:12:29.064Z,39.38
2017-12-02T09:13:29.057Z,33.75
2017-12-02T09:14:28.909Z,33.75
2017-12-02T09:15:28.903Z,39.38
2017-12-02T09:16:28.907Z,39.38
2017-12-02T09:17:28.863Z,39.38
2017-12-02T09:18:28.853Z,39.38
2017-12-02T09:19:28.844Z,39.38
2017-12-02T09:20:28.819Z,39.38
2017-12-02T09:21:28.842Z,45.00
2017-12-02T09:22:28.788Z,45.00
2017-12-02T09:23:28.755Z,45.00
2017-12-02T09:24:28.733Z,45.00
2017-12-02T09:25:28.726Z,45.00
2017-12-02T09:26:28.708Z,45.00
2017-12-02T09:27:28.751Z,50.63
2017-12-02T09:28:28.674Z,50.63
2017-12-02T09:29:28.650Z,50.63
2017-12-02T09:30:28.632Z,50.63
2017-12-02T09:31:28.611Z,50.63
2017-12-02T09:32:28.606Z,50.63
2017-12-02T09:33:28.741Z,50.63
2017-12-02T09:34:28.561Z,50.63
2017-12-02T09:35:28.548Z,50.63
2017-12-02T09:36:28.531Z,50.63
2017-12-02T09:37:28.511Z,50.63
2017-12-02T09:38:28.503Z,50.63
2017-12-02T09:39:28.630Z,50.63
2017-12-02T09:40:28.467Z,56.25
2017-12-02T09:41:29.188Z,56.25
2017-12-02T09:42:28.452Z,61.88
2017-12-02T09:43:28.656Z,61.88
2017-12-02T09:44:28.985Z,61.88
2017-12-02T09:45:28.576Z,56.25
2017-12-02T09:46:28.479Z,61.88
2017-12-02T09:47:28.446Z,67.50
2017-12-02T09:48:28.488Z,67.50
2017-12-02T09:49:29.298Z,61.88
2017-12-02T09:50:28.625Z,67.50
2017-12-02T09:51:28.397Z,67.50
2017-12-02T09:52:28.327Z,67.50
2017-12-02T09:53:28.465Z,73.13
2017-12-02T09:54:28.308Z,73.13
2017-12-02T09:55:28.765Z,73.13
2017-12-02T09:56:28.438Z,73.13
2017-12-02T09:57:29.330Z,73.13
2017-12-02T09:58:28.303Z,73.13
2017-12-02T09:59:28.304Z,73.13
2017-12-02T10:00:28.293Z,67.50
2017-12-02T10:01:30.119Z,61.88
2017-12-02T10:02:28.547Z,61.88
2017-12-02T10:03:28.572Z,56.25
2017-12-02T10:04:28.474Z,56.25
2017-12-02T10:05:28.275Z,56.25
2017-12-02T10:06:28.615Z,61.88
2017-12-02T10:07:27.998Z,61.88
2017-12-02T10:08:28.014Z,61.88
2017-12-02T10:09:28.003Z,67.50
2017-12-02T10:10:27.940Z,67.50
2017-12-02T10:11:28.167Z,67.50
2017-12-02T10:12:27.911Z,67.50
2017-12-02T10:13:27.893Z,61.88
2017-12-02T10:14:27.937Z,67.50
2017-12-02T10:15:27.911Z,67.50
2017-12-02T10:16:27.838Z,78.75
2017-12-02T10:17:27.874Z,78.75
2017-12-02T10:18:27.796Z,78.75
2017-12-02T10:19:27.892Z,73.13
2017-12-02T10:20:28.170Z,73.13
2017-12-02T10:21:27.977Z,67.50
2017-12-02T10:22:27.814Z,61.88
2017-12-02T10:23:28.686Z,61.88
2017-12-02T10:24:27.903Z,61.88
2017-12-02T10:25:27.898Z,61.88
2017-12-02T10:26:27.835Z,67.50
2017-12-02T10:27:28.176Z,73.13
2017-12-02T10:28:27.809Z,67.50
2017-12-02T10:29:27.902Z,67.50
2017-12-02T10:30:27.840Z,61.88
2017-12-02T10:31:27.795Z,67.50
2017-12-02T10:32:27.556Z,67.50
2017-12-02T10:33:27.540Z,73.13
2017-12-02T10:34:27.521Z,73.13
2017-12-02T10:35:27.515Z,73.13
2017-12-02T10:36:27.495Z,73.13
2017-12-02T10:37:27.515Z,73.13
2017-12-02T10:38:27.469Z,78.75
2017-12-02T10:39:27.468Z,78.75
2017-12-02T10:40:27.501Z,78.75
2017-12-02T10:41:27.403Z,84.38
2017-12-02T10:42:27.390Z,84.38
2017-12-02T10:43:27.386Z,84.38
2017-12-02T10:44:27.354Z,84.38
2017-12-02T10:45:27.339Z,90.00
2017-12-02T10:46:27.378Z,90.00
2017-12-02T10:47:27.328Z,90.00
2017-12-02T10:48:27.283Z,84.38
2017-12-02T10:49:27.272Z,78.75
2017-12-02T10:50:27.251Z,73.13
2017-12-02T10:51:27.253Z,73.13
2017-12-02T10:52:27.364Z,78.75
2017-12-02T10:53:27.231Z,73.13
2017-12-02T10:54:27.180Z,78.75
2017-12-02T10:55:27.171Z,73.13
2017-12-02T10:56:27.158Z,73.13
2017-12-02T10:57:27.138Z,73.13
2017-12-02T10:58:27.191Z,67.50
2017-12-02T10:59:27.097Z,67.50
2017-12-02T11:00:27.077Z,67.50
2017-12-02T11:01:27.068Z,67.50
2017-12-02T11:02:27.049Z,73.13
2017-12-02T11:03:27.040Z,78.75
2017-12-02T11:04:27.153Z,78.75
2017-12-02T11:05:27.001Z,78.75
2017-12-02T11:06:26.987Z,73.13
2017-12-02T11:07:26.960Z,73.13
2017-12-02T11:08:26.947Z,67.50
2017-12-02T11:09:26.933Z,67.50
2017-12-02T11:10:26.981Z,61.88
2017-12-02T11:11:26.894Z,61.88
2017-12-02T11:12:26.871Z,61.88
2017-12-02T11:13:26.855Z,61.88
2017-12-02T11:14:26.839Z,61.88
2017-12-02T11:15:26.822Z,61.88
2017-12-02T11:16:26.841Z,61.88
2017-12-02T11:17:26.796Z,61.88
2017-12-02T11:18:26.772Z,67.50
2017-12-02T11:19:26.752Z,67.50
2017-12-02T11:20:26.801Z,73.13
2017-12-02T11:21:26.719Z,73.13
2017-12-02T11:22:26.711Z,67.50
2017-12-02T11:23:26.693Z,67.50
2017-12-02T11:24:26.673Z,73.13
2017-12-02T11:25:26.701Z,78.75
2017-12-02T11:26:27.106Z,78.75
2017-12-02T11:27:26.682Z,78.75
2017-12-02T11:28:26.793Z,78.75
2017-12-02T11:29:27.273Z,78.75
2017-12-02T11:30:27.086Z,84.38
2017-12-02T11:31:26.551Z,84.38
2017-12-02T11:32:26.681Z,84.38
2017-12-02T11:33:26.513Z,95.63
2017-12-02T11:34:26.497Z,101.25
2017-12-02T11:35:26.473Z,95.63
2017-12-02T11:36:26.476Z,95.63
2017-12-02T11:37:26.453Z,101.25
2017-12-02T11:38:46.733Z,112.50
2017-12-02T11:39:46.445Z,101.25
2017-12-02T11:40:46.258Z,95.63
2017-12-02T11:41:46.768Z,95.63
2017-12-02T11:42:47.227Z,118.13
2017-12-02T11:43:46.182Z,95.63
2017-12-02T11:44:46.214Z,95.63
2017-12-02T11:45:46.143Z,95.63
2017-12-02T11:46:46.128Z,95.63
2017-12-02T11:47:46.118Z,90.00
2017-12-02T11:48:46.089Z,90.00
2017-12-02T11:49:46.082Z,84.38
2017-12-02T11:50:46.115Z,101.25
2017-12-02T11:51:46.047Z,106.88
2017-12-02T11:52:46.027Z,106.88
2017-12-02T11:53:46.007Z,118.13
2017-12-02T11:54:45.988Z,106.88
2017-12-02T11:55:45.968Z,90.00
2017-12-02T11:56:46.101Z,84.38
2017-12-02T11:57:45.938Z,84.38
2017-12-02T11:58:45.919Z,84.38
2017-12-02T11:59:45.916Z,84.38
2017-12-02T12:00:45.886Z,90.00
2017-12-02T12:01:45.869Z,95.63
2017-12-02T12:02:45.996Z,90.00
2017-12-02T12:03:46.514Z,95.63
2017-12-02T12:04:46.031Z,95.63
2017-12-02T12:05:45.906Z,84.38
2017-12-02T12:06:46.484Z,78.75
2017-12-02T12:07:46.052Z,78.75
2017-12-02T12:08:45.924Z,78.75
2017-12-02T12:09:45.935Z,73.13
2017-12-02T12:10:45.896Z,73.13
2017-12-02T12:11:45.889Z,78.75
2017-12-02T12:12:45.797Z,84.38
2017-12-02T12:13:45.670Z,90.00
2017-12-02T12:14:45.787Z,101.25
2017-12-02T12:15:45.630Z,112.50
2017-12-02T12:16:46.149Z,123.75
2017-12-02T12:17:45.598Z,157.50
2017-12-02T12:18:45.586Z,196.88
2017-12-02T12:19:45.569Z,185.63
2017-12-02T12:20:45.573Z,163.13
2017-12-02T12:21:45.533Z,151.88
2017-12-02T12:22:45.515Z,151.88
2017-12-02T12:23:45.492Z,118.13
2017-12-02T12:24:45.473Z,129.38
2017-12-02T12:25:45.468Z,112.50
2017-12-02T12:26:45.581Z,95.63
2017-12-02T12:27:45.437Z,84.38
2017-12-02T12:28:45.639Z,90.00
2017-12-02T12:29:45.858Z,84.38
2017-12-02T12:30:45.524Z,78.75
2017-12-02T12:31:46.057Z,78.75
2017-12-02T12:32:45.883Z,78.75
2017-12-02T12:33:45.520Z,84.38
2017-12-02T12:34:45.755Z,78.75
2017-12-02T12:35:45.507Z,78.75
2017-12-02T12:36:45.428Z,78.75
2017-12-02T12:37:45.540Z,90.00
2017-12-02T12:38:45.824Z,84.38
2017-12-02T12:39:45.333Z,73.13
2017-12-02T12:40:45.305Z,73.13
2017-12-02T12:41:45.445Z,73.13
2017-12-02T12:42:45.429Z,73.13
2017-12-02T12:43:45.303Z,73.13
2017-12-02T12:44:45.250Z,67.50
2017-12-02T12:45:46.451Z,67.50
2017-12-02T12:46:45.930Z,67.50
2017-12-02T12:47:49.916Z,67.50
2017-12-02T12:48:46.546Z,67.50
2017-12-02T12:49:45.532Z,61.88
2017-12-02T12:50:45.069Z,56.25
2017-12-02T12:51:45.025Z,56.25
2017-12-02T12:52:45.025Z,61.88
2017-12-02T12:53:45.146Z,61.88
2017-12-02T12:54:44.961Z,73.13
2017-12-02T12:55:45.217Z,67.50
2017-12-02T12:56:45.170Z,61.88
2017-12-02T12:57:45.161Z,61.88
2017-12-02T12:58:45.043Z,61.88
2017-12-02T12:59:45.134Z,67.50
2017-12-02T13:00:45.613Z,73.13
2017-12-02T13:01:45.214Z,67.50
2017-12-02T13:02:45.275Z,61.88
2017-12-02T13:03:44.945Z,56.25
2017-12-02T13:04:45.672Z,56.25
2017-12-02T13:05:45.774Z,56.25
2017-12-02T13:06:45.318Z,61.88